Relevés horaires St-Hubert (Belgique)


Relevés horaires à St-Hubert - Dimanche 04 Mai 2014
Heure UTC1 Température [°C] Vent [km/h] Hum. [%] Pres.4 [hPa] Visi. [Km] Nébu. [octa] Préc.5 [mm] Cond.
2m. Res. Ros. Dir.2 Vit. Moy. Raf.3
23:00 5.4 3.8 1.7 ENE 7.4 7.4 11.1 77 1021.2(-0.6/3h) 16 0/8 -- --
22:00 5.7 4.1 1.0 ENE 7.4 7.4 11.1 72 1021.4(-0.5/3h) 20 0/8 -- --
21:00 6.6 5.7 0.9 NE 5.6 9.3 11.1 67 1021.4(-0.3/3h) 24 0/8 -- --
20:00 8.0 6.8 0.9 NE 7.4 7.4 9.3 61 1021.1(-0.3/3h) 27 0/8 -- --
19:00 9.4 8.4 0.8 NNE 7.4 9.3 11.1 55 1021(-0.4/3h) 27 0/8 -- --
18:00 10.6 9.8 0.9 N 7.4 9.3 16.7 51 1020.7(-0.4/3h) 29 -- 0/12h
--
17:00 11.7 11.1 0.6 N 7.4 7.4 11.1 46 1020.5(-0.7/3h) 29 -- -- --
16:00 12.8 12.8 -- N 5.6 7.4 13.0 -- 1020.5(-0.9/3h) 30 0/8 -- --
15:00 13.6 13.6 0.4 NNO 5.6 9.3 16.7 40 1020.4(-1.3/3h) 30 0/8 -- --
14:00 12.9 12.9 -0.8 N 5.6 7.4 13.0 39 1021(-1.5/3h) 30 0/8 -- --
13:00 12.6 12.6 -0.6 NNO 3.7 9.3 14.8 40 1021.6(-1.4/3h) 27 0/8 -- --
12:00 12.2 12.2 -1.2 NNO 1.9 5.6 11.1 39 1022.1(-1.3/3h) 24 0/8 0/6h
--
11:00 11.4 11.4 1.3 NNO 1.9 5.6 11.1 50 1022.9(-0.9/3h) 25 0/8 -- --
10:00 9.8 9.4 -2.6 NNE 5.6 5.6 11.1 42 1023.8(-0.3/3h) 20 0/8 -- --
09:00 8.7 8.7 -4.0 N 3.7 5.6 11.1 40 1024.4(0.0/3h) 24 0/8 -- --
08:00 8.1 7.4 -2.4 NE 5.6 5.6 11.1 47 1024.7(0.5/3h) 30 0/8 -- --
07:00 6.8 6.8 0.4 ENE 3.7 3.7 5.6 64 1024.8(0.4/3h) 23 0/8 -- --
06:00 4.4 4.4 0.4 NE 3.7 5.6 7.4 75 1025.4(0.4/3h) 19 0/8 0/12h
--
05:00 2.3 0.8 -0.1 ENE 5.6 5.6 7.4 84 1025.6(-0.3/3h) 18 0/8 -- --
04:00 1.5 -0.1 -0.5 ENE 5.6 5.6 7.4 87 1025.7(-0.5/3h) 21 0/8 -- --
03:00 1.2 -0.5 -1.1 ENE 5.6 5.6 7.4 85 1025.9(-0.7/3h) 24 0/8 -- --
02:00 1.0 -0.7 -1.0 NE 5.6 5.6 7.4 86 1026.2(-0.6/3h) 26 0/8 -- --
01:00 0.3 -1.5 -1.1 ENE 5.6 5.6 7.4 90 1026.5(-0.7/3h) 22 -- -- --
00:00 1.6 1.6 -0.5 ENE 3.7 7.4 11.1 86 1026.5(0.1/3h) 30 0/8 0/6h
0/24h
--

1 Coordinated Universal Time. Actuellement il est 02:00 locale et 01:00 UTC.

2 Le vent souffle depuis la direction indiquée vers la direction oposée.

3 Les rafales max. sont disponible 40 min après l'heure du relevé.

4 Pour les stations d'altitude (plus de 600m) le géopotentiel du niveau le plus proche de la pression obligatoire est indiqué.

5 Les stations disposant d'un diffuseur peuvent indiquer "trace". Cela signifie que des précipitations ont touchés le sol mais que la quantité est inférieure à 0.1 mm.

Récapitulatif de la journée
Température [°C] Vent [km/h] Ensoleillement4 [h] Precipitations totale5 [mm] Pression [Hpa]
Min1 Max.2 Moy.3 Max. Min Max.
-0.2 14.0 6.8 16.7 0 h 0 min 0 1020.4 1026.5

1 Température minimale relevée entre 18:00 UTC la veille et 18:00 UTC le jour donné.

2 Température maximale relevée entre 06:00 UTC le jour donné et 06:00 UTC le lendemain.

3 Vent moyen de la journée basé sur les relevés horaires.

4 Ensoleillement en heures relevé entre 06:00 UTC la veille et 06:00 UTC le jour donné.

5 Précipitations totales tombées entre 06:00 UTC la jour donné et 06:00 UTC le lendemain.

Graphiques horaires